createdAt,value
2023-01-19T00:00:37.182Z,7.90
2023-01-19T00:01:37.135Z,7.20
2023-01-19T00:02:37.155Z,7.30
2023-01-19T00:03:37.164Z,8.00
2023-01-19T00:04:37.099Z,8.60
2023-01-19T00:05:37.068Z,8.30
2023-01-19T00:06:37.066Z,8.80
2023-01-19T00:07:37.058Z,7.20
2023-01-19T00:08:37.064Z,9.30
2023-01-19T00:09:37.041Z,8.10
2023-01-19T00:10:37.027Z,7.40
2023-01-19T00:11:37.011Z,7.90
2023-01-19T00:12:37.007Z,7.90
2023-01-19T00:13:36.998Z,7.30
2023-01-19T00:14:36.980Z,8.60
2023-01-19T00:15:36.975Z,8.00
2023-01-19T00:16:36.977Z,8.30
2023-01-19T00:17:36.959Z,7.80
2023-01-19T00:18:36.942Z,7.70
2023-01-19T00:19:36.923Z,9.00
2023-01-19T00:20:36.925Z,7.00
2023-01-19T00:21:36.894Z,7.50
2023-01-19T00:22:36.903Z,9.70
2023-01-19T00:23:36.890Z,7.60
2023-01-19T00:24:36.883Z,7.20
2023-01-19T00:25:36.854Z,8.10
2023-01-19T00:26:36.856Z,6.80
2023-01-19T00:27:36.865Z,8.40
2023-01-19T00:28:36.823Z,6.80
2023-01-19T00:29:36.823Z,7.60
2023-01-19T00:30:36.815Z,8.10
2023-01-19T00:31:36.810Z,8.00
2023-01-19T00:32:36.785Z,7.60
2023-01-19T00:33:36.799Z,8.80
2023-01-19T00:34:36.777Z,7.40
2023-01-19T00:35:36.753Z,6.20
2023-01-19T00:36:36.745Z,7.00
2023-01-19T00:37:36.723Z,5.80
2023-01-19T00:38:36.722Z,8.40
2023-01-19T00:39:36.719Z,6.30
2023-01-19T00:40:36.721Z,6.90
2023-01-19T00:41:36.682Z,6.70
2023-01-19T00:42:36.694Z,6.40
2023-01-19T00:43:36.672Z,6.50
2023-01-19T00:44:36.667Z,7.10
2023-01-19T00:45:36.687Z,6.60
2023-01-19T00:46:36.631Z,9.10
2023-01-19T00:47:36.636Z,6.10
2023-01-19T00:48:36.616Z,5.70
2023-01-19T00:49:36.626Z,6.70
2023-01-19T00:50:36.610Z,6.00
2023-01-19T00:51:36.572Z,7.90
2023-01-19T00:52:36.570Z,6.70
2023-01-19T00:53:36.561Z,7.70
2023-01-19T00:54:36.544Z,6.40
2023-01-19T00:55:36.567Z,6.10
2023-01-19T00:56:36.534Z,6.10
2023-01-19T00:57:36.520Z,5.50
2023-01-19T00:58:36.503Z,6.00
2023-01-19T00:59:36.496Z,6.50
2023-01-19T01:00:36.525Z,5.30
2023-01-19T01:01:45.342Z,5.10
2023-01-19T01:02:37.601Z,5.20
2023-01-19T01:03:36.451Z,5.40
2023-01-19T01:04:36.437Z,6.00
2023-01-19T01:05:36.448Z,7.10
2023-01-19T01:06:36.447Z,5.90
2023-01-19T01:07:36.413Z,5.40
2023-01-19T01:08:36.398Z,6.60
2023-01-19T01:09:36.387Z,5.00
2023-01-19T01:10:36.381Z,7.50
2023-01-19T01:11:36.370Z,5.40
2023-01-19T01:12:36.377Z,5.10
2023-01-19T01:13:36.344Z,5.40
2023-01-19T01:14:36.342Z,5.10
2023-01-19T01:15:36.331Z,5.10
2023-01-19T01:16:36.374Z,5.40
2023-01-19T01:17:36.324Z,6.10
2023-01-19T01:18:36.303Z,5.00
2023-01-19T01:19:36.279Z,6.00
2023-01-19T01:20:36.274Z,6.50
2023-01-19T01:21:36.269Z,4.90
2023-01-19T01:22:36.263Z,6.20
2023-01-19T01:23:36.253Z,5.00
2023-01-19T01:24:36.271Z,4.50
2023-01-19T01:25:36.224Z,4.90
2023-01-19T01:26:36.210Z,6.00
2023-01-19T01:27:36.213Z,5.80
2023-01-19T01:28:36.254Z,6.10
2023-01-19T01:29:36.172Z,5.80
2023-01-19T01:30:36.174Z,6.40
2023-01-19T01:31:36.181Z,5.10
2023-01-19T01:32:36.149Z,6.00
2023-01-19T01:33:41.269Z,5.00
2023-01-19T01:34:37.132Z,4.80
2023-01-19T01:35:36.112Z,5.10
2023-01-19T01:36:36.108Z,4.50
2023-01-19T01:37:36.095Z,5.00
2023-01-19T01:38:36.102Z,5.10
2023-01-19T01:39:36.072Z,4.70
2023-01-19T01:40:36.073Z,4.60
2023-01-19T01:41:36.050Z,5.80
2023-01-19T01:42:36.048Z,4.80
2023-01-19T01:43:36.047Z,5.90
2023-01-19T01:44:36.019Z,5.10
2023-01-19T01:45:36.035Z,4.50
2023-01-19T01:46:36.006Z,4.80
2023-01-19T01:47:35.984Z,4.60
2023-01-19T01:48:35.982Z,4.70
2023-01-19T01:49:35.970Z,5.70
2023-01-19T01:50:35.951Z,5.30
2023-01-19T01:51:35.939Z,4.90
2023-01-19T01:52:35.932Z,4.90
2023-01-19T01:53:35.950Z,6.80
2023-01-19T01:54:35.909Z,5.40
2023-01-19T01:55:35.897Z,5.20
2023-01-19T01:56:35.890Z,6.30
2023-01-19T01:57:35.875Z,4.60
2023-01-19T01:58:35.868Z,5.50
2023-01-19T01:59:35.867Z,5.10
2023-01-19T02:00:35.843Z,5.00
2023-01-19T02:01:35.957Z,5.30
2023-01-19T02:02:35.823Z,3.90
2023-01-19T02:03:35.891Z,4.20
2023-01-19T02:04:35.807Z,4.20
2023-01-19T02:05:35.806Z,7.40
2023-01-19T02:06:35.784Z,5.90
2023-01-19T02:07:35.777Z,4.80
2023-01-19T02:08:35.759Z,4.10
2023-01-19T02:09:35.767Z,4.80
2023-01-19T02:10:35.738Z,5.00
2023-01-19T02:11:35.734Z,5.30
2023-01-19T02:12:35.730Z,4.50
2023-01-19T02:13:35.714Z,5.20
2023-01-19T02:14:35.704Z,4.30
2023-01-19T02:15:35.704Z,5.10
2023-01-19T02:16:35.690Z,5.60
2023-01-19T02:17:35.670Z,6.10
2023-01-19T02:18:35.661Z,5.60
2023-01-19T02:19:35.635Z,5.80
2023-01-19T02:20:35.638Z,4.60
2023-01-19T02:21:35.642Z,4.30
2023-01-19T02:22:35.604Z,4.00
2023-01-19T02:23:35.607Z,4.70
2023-01-19T02:24:35.594Z,5.20
2023-01-19T02:25:35.602Z,4.90
2023-01-19T02:26:35.570Z,4.60
2023-01-19T02:27:35.567Z,4.90
2023-01-19T02:28:35.549Z,5.00
2023-01-19T02:29:35.542Z,4.10
2023-01-19T02:30:35.644Z,4.70
2023-01-19T02:31:35.542Z,4.20
2023-01-19T02:32:35.524Z,4.10
2023-01-19T02:33:35.512Z,4.30
2023-01-19T02:34:35.480Z,3.40
2023-01-19T02:35:35.486Z,3.70
2023-01-19T02:36:35.473Z,4.00
2023-01-19T02:37:35.450Z,4.00
2023-01-19T02:38:35.448Z,3.80
2023-01-19T02:39:35.440Z,4.50
2023-01-19T02:40:35.435Z,3.40
2023-01-19T02:41:35.410Z,4.00
2023-01-19T02:42:35.407Z,3.90
2023-01-19T02:43:35.389Z,4.10
2023-01-19T02:44:35.377Z,4.00
2023-01-19T02:45:35.389Z,5.20
2023-01-19T02:46:35.355Z,4.20
2023-01-19T02:47:35.345Z,3.90
2023-01-19T02:48:35.342Z,5.30
2023-01-19T02:49:35.337Z,4.80
2023-01-19T02:50:35.340Z,4.40
2023-01-19T02:51:35.311Z,4.90
2023-01-19T02:52:35.300Z,4.10
2023-01-19T02:53:35.320Z,3.70
2023-01-19T02:54:35.268Z,4.10
2023-01-19T02:55:35.265Z,3.90
2023-01-19T02:56:35.258Z,4.90
2023-01-19T02:57:35.246Z,4.50
2023-01-19T02:58:35.227Z,5.40
2023-01-19T02:59:35.247Z,3.90
2023-01-19T03:00:35.213Z,4.80
2023-01-19T03:01:35.357Z,4.00
2023-01-19T03:02:35.226Z,4.80
2023-01-19T03:03:35.191Z,4.20
2023-01-19T03:04:35.172Z,4.20
2023-01-19T03:05:35.176Z,4.30
2023-01-19T03:06:35.156Z,5.70
2023-01-19T03:07:35.137Z,4.40
2023-01-19T03:08:35.126Z,4.80
2023-01-19T03:09:35.115Z,3.70
2023-01-19T03:10:35.106Z,3.90
2023-01-19T03:11:35.105Z,4.60
2023-01-19T03:12:35.083Z,4.10
2023-01-19T03:13:35.085Z,4.30
2023-01-19T03:14:35.059Z,5.60
2023-01-19T03:15:35.082Z,5.40
2023-01-19T03:16:35.145Z,4.60
2023-01-19T03:17:35.047Z,4.20
2023-01-19T03:18:35.012Z,5.00
2023-01-19T03:19:35.002Z,4.40
2023-01-19T03:20:34.992Z,5.00
2023-01-19T03:21:35.012Z,6.00
2023-01-19T03:22:34.972Z,6.20
2023-01-19T03:23:34.974Z,5.80
2023-01-19T03:24:36.940Z,5.20
2023-01-19T03:25:34.943Z,7.80
2023-01-19T03:26:34.953Z,5.60
2023-01-19T03:27:34.919Z,5.20
2023-01-19T03:28:34.918Z,5.20
2023-01-19T03:29:34.956Z,7.40
2023-01-19T03:30:34.901Z,6.20
2023-01-19T03:31:34.889Z,4.70
2023-01-19T03:32:34.890Z,5.10
2023-01-19T03:33:34.869Z,5.20
2023-01-19T03:34:34.852Z,5.40
2023-01-19T03:35:34.840Z,5.00
2023-01-19T03:36:34.845Z,5.40
2023-01-19T03:37:34.836Z,4.80
2023-01-19T03:38:34.816Z,5.50
2023-01-19T03:39:34.817Z,4.30
2023-01-19T03:40:34.791Z,4.10
2023-01-19T03:41:34.785Z,6.20
2023-01-19T03:42:34.784Z,5.90
2023-01-19T03:43:34.760Z,5.60
2023-01-19T03:44:34.739Z,5.10
2023-01-19T03:45:34.728Z,5.70
2023-01-19T03:46:34.740Z,5.40
2023-01-19T03:47:34.726Z,4.50
2023-01-19T03:48:34.703Z,5.00
2023-01-19T03:49:34.681Z,4.40
2023-01-19T03:50:34.668Z,6.10
2023-01-19T03:51:34.671Z,6.60
2023-01-19T03:52:34.673Z,5.40
2023-01-19T03:53:34.645Z,5.00
2023-01-19T03:54:34.635Z,6.70
2023-01-19T03:55:34.622Z,5.60
2023-01-19T03:56:34.611Z,6.20
2023-01-19T03:57:34.622Z,5.40
2023-01-19T03:58:34.588Z,4.60
2023-01-19T03:59:34.585Z,5.00
2023-01-19T04:00:34.570Z,6.70
2023-01-19T04:01:34.640Z,6.00
2023-01-19T04:02:34.613Z,5.20
2023-01-19T04:03:34.537Z,5.30
2023-01-19T04:04:34.544Z,5.50
2023-01-19T04:05:34.518Z,5.30
2023-01-19T04:06:34.506Z,5.10
2023-01-19T04:07:34.515Z,5.90
2023-01-19T04:08:34.484Z,5.80
2023-01-19T04:09:34.476Z,4.80
2023-01-19T04:10:34.453Z,6.10
2023-01-19T04:11:34.451Z,4.60
2023-01-19T04:12:34.464Z,5.20
2023-01-19T04:13:34.432Z,6.00
2023-01-19T04:14:34.447Z,4.80
2023-01-19T04:15:34.519Z,4.50
2023-01-19T04:16:34.400Z,5.90
2023-01-19T04:17:34.407Z,5.70
2023-01-19T04:18:34.895Z,6.20
2023-01-19T04:19:34.367Z,5.70
2023-01-19T04:20:34.356Z,5.50
2023-01-19T04:21:34.344Z,5.30
2023-01-19T04:22:34.341Z,4.40
2023-01-19T04:23:34.355Z,5.10
2023-01-19T04:24:34.312Z,5.40
2023-01-19T04:25:34.307Z,4.40
2023-01-19T04:26:34.290Z,5.60
2023-01-19T04:27:34.294Z,4.90
2023-01-19T04:28:34.271Z,4.50
2023-01-19T04:29:34.260Z,4.50
2023-01-19T04:30:34.256Z,4.40
2023-01-19T04:31:34.266Z,4.70
2023-01-19T04:32:34.418Z,5.90
2023-01-19T04:33:34.222Z,5.50
2023-01-19T04:34:34.203Z,4.40
2023-01-19T04:35:34.228Z,5.50
2023-01-19T04:36:34.195Z,5.00
2023-01-19T04:37:34.199Z,4.90
2023-01-19T04:38:34.184Z,4.70
2023-01-19T04:39:34.151Z,5.50
2023-01-19T04:40:34.140Z,5.10
2023-01-19T04:41:34.135Z,5.50
2023-01-19T04:42:34.136Z,4.90
2023-01-19T04:43:34.115Z,5.90
2023-01-19T04:44:34.099Z,5.30
2023-01-19T04:45:34.087Z,4.90
2023-01-19T04:46:34.112Z,5.40
2023-01-19T04:47:34.084Z,5.70
2023-01-19T04:48:34.065Z,5.80
2023-01-19T04:49:34.045Z,5.10
2023-01-19T04:50:34.034Z,5.50
2023-01-19T04:51:34.026Z,4.90
2023-01-19T04:52:34.031Z,7.60
2023-01-19T04:53:34.008Z,5.80
2023-01-19T04:54:34.054Z,6.00
2023-01-19T04:55:33.997Z,5.10
2023-01-19T04:56:33.969Z,5.50
2023-01-19T04:57:33.979Z,5.50
2023-01-19T04:58:33.950Z,5.80
2023-01-19T04:59:33.941Z,5.50
2023-01-19T05:00:33.927Z,6.40
2023-01-19T05:01:34.035Z,5.80
2023-01-19T05:02:33.951Z,5.90
2023-01-19T05:03:33.922Z,6.40
2023-01-19T05:04:33.891Z,6.30
2023-01-19T05:05:33.875Z,5.90
2023-01-19T05:06:33.864Z,6.60
2023-01-19T05:07:33.851Z,5.90
2023-01-19T05:08:33.857Z,5.80
2023-01-19T05:09:33.840Z,5.80
2023-01-19T05:10:33.832Z,5.70
2023-01-19T05:11:33.804Z,5.80
2023-01-19T05:12:33.796Z,6.00
2023-01-19T05:13:33.842Z,6.20
2023-01-19T05:14:33.781Z,6.50
2023-01-19T05:15:33.765Z,7.20
2023-01-19T05:16:33.756Z,7.20
2023-01-19T05:17:33.744Z,6.90
2023-01-19T05:18:33.744Z,8.50
2023-01-19T05:19:33.744Z,9.60
2023-01-19T05:20:33.725Z,10.60
2023-01-19T05:21:33.719Z,9.00
2023-01-19T05:22:33.690Z,9.30
2023-01-19T05:23:33.685Z,7.80
2023-01-19T05:24:33.693Z,7.80
2023-01-19T05:25:33.661Z,7.50
2023-01-19T05:26:33.654Z,7.90
2023-01-19T05:27:33.655Z,7.00
2023-01-19T05:28:33.636Z,7.10
2023-01-19T05:29:33.658Z,6.00
2023-01-19T05:30:33.718Z,6.10
2023-01-19T05:31:33.708Z,6.40
2023-01-19T05:32:33.588Z,7.00
2023-01-19T05:33:33.579Z,6.90
2023-01-19T05:34:33.569Z,7.30
2023-01-19T05:35:36.242Z,6.10
2023-01-19T05:36:33.542Z,6.70
2023-01-19T05:37:33.541Z,6.70
2023-01-19T05:38:35.791Z,6.20
2023-01-19T05:39:33.519Z,7.50
2023-01-19T05:40:33.502Z,6.70
2023-01-19T05:41:33.514Z,7.00
2023-01-19T05:42:33.483Z,6.20
2023-01-19T05:43:33.468Z,6.40
2023-01-19T05:44:33.454Z,7.10
2023-01-19T05:45:33.451Z,6.70
2023-01-19T05:46:33.536Z,7.20
2023-01-19T05:47:33.434Z,6.00
2023-01-19T05:48:33.421Z,5.90
2023-01-19T05:49:33.405Z,5.70
2023-01-19T05:50:33.395Z,9.70
2023-01-19T05:51:33.384Z,7.50
2023-01-19T05:52:33.418Z,5.70
2023-01-19T05:53:33.367Z,7.50
2023-01-19T05:54:33.354Z,6.10
2023-01-19T05:55:33.350Z,7.70
2023-01-19T05:56:33.331Z,6.10
2023-01-19T05:57:33.337Z,7.80
2023-01-19T05:58:33.308Z,6.80
2023-01-19T05:59:33.300Z,8.00
2023-01-19T06:00:33.286Z,6.80
2023-01-19T06:01:33.278Z,5.70
2023-01-19T06:02:33.279Z,8.70
2023-01-19T06:03:33.331Z,8.40
2023-01-19T06:04:33.247Z,7.20
2023-01-19T06:05:33.235Z,6.80
2023-01-19T06:06:33.224Z,8.20
2023-01-19T06:07:33.227Z,7.20
2023-01-19T06:08:33.221Z,9.80
2023-01-19T06:09:33.192Z,9.60
2023-01-19T06:10:33.186Z,15.40
2023-01-19T06:11:33.165Z,19.50
2023-01-19T06:12:33.172Z,20.90
2023-01-19T06:13:33.165Z,21.80
2023-01-19T06:14:33.135Z,15.60
2023-01-19T06:15:33.135Z,15.70
2023-01-19T06:16:33.173Z,15.20
2023-01-19T06:17:33.101Z,13.10
2023-01-19T06:18:33.127Z,11.50
2023-01-19T06:19:33.083Z,12.00
2023-01-19T06:20:33.074Z,11.00
2023-01-19T06:21:33.068Z,9.90
2023-01-19T06:22:33.088Z,7.90
2023-01-19T06:23:33.047Z,10.10
2023-01-19T06:24:33.031Z,7.80
2023-01-19T06:25:33.018Z,8.30
2023-01-19T06:26:33.075Z,7.90
2023-01-19T06:27:33.000Z,8.90
2023-01-19T06:28:33.013Z,7.60
2023-01-19T06:29:32.978Z,9.00
2023-01-19T06:30:33.065Z,6.90
2023-01-19T06:31:32.991Z,7.20
2023-01-19T06:32:32.946Z,7.20
2023-01-19T06:33:32.953Z,7.40
2023-01-19T06:34:32.951Z,6.30
2023-01-19T06:35:32.909Z,7.80
2023-01-19T06:36:32.910Z,7.30
2023-01-19T06:37:32.896Z,6.80
2023-01-19T06:38:32.895Z,6.90
2023-01-19T06:39:32.871Z,7.90
2023-01-19T06:40:32.866Z,7.20
2023-01-19T06:41:32.859Z,5.90
2023-01-19T06:42:32.876Z,6.00
2023-01-19T06:43:32.873Z,5.80
2023-01-19T06:44:32.829Z,5.90
2023-01-19T06:45:32.886Z,5.90
2023-01-19T06:46:32.800Z,5.40
2023-01-19T06:47:32.811Z,6.10
2023-01-19T06:48:32.774Z,7.00
2023-01-19T06:49:32.783Z,5.90
2023-01-19T06:50:32.744Z,6.60
2023-01-19T06:51:32.739Z,6.20
2023-01-19T06:52:32.734Z,8.40
2023-01-19T06:53:32.733Z,7.10
2023-01-19T06:54:32.722Z,7.20
2023-01-19T06:55:32.692Z,6.20
2023-01-19T06:56:32.691Z,6.70
2023-01-19T06:57:32.682Z,6.80
2023-01-19T06:58:32.682Z,6.70
2023-01-19T06:59:32.656Z,6.00
2023-01-19T07:00:32.660Z,5.80
2023-01-19T07:01:32.718Z,8.10
2023-01-19T07:02:32.805Z,6.90
2023-01-19T07:03:32.647Z,5.70
2023-01-19T07:04:32.612Z,5.60
2023-01-19T07:05:32.591Z,6.20
2023-01-19T07:06:32.591Z,6.60
2023-01-19T07:07:32.567Z,6.60
2023-01-19T07:08:32.562Z,6.60
2023-01-19T07:09:32.578Z,6.10
2023-01-19T07:11:26.362Z,5.80
2023-01-19T07:11:33.658Z,8.00
2023-01-19T07:12:32.518Z,5.80
2023-01-19T07:13:32.521Z,6.20
2023-01-19T07:14:32.532Z,7.50
2023-01-19T07:15:32.503Z,6.10
2023-01-19T07:16:32.499Z,6.50
2023-01-19T07:17:32.487Z,6.50
2023-01-19T07:18:32.464Z,6.80
2023-01-19T07:19:32.444Z,8.30
2023-01-19T07:20:32.466Z,6.10
2023-01-19T07:21:32.423Z,7.20
2023-01-19T07:22:32.421Z,6.60
2023-01-19T07:23:32.409Z,7.10
2023-01-19T07:24:32.410Z,6.20
2023-01-19T07:25:32.392Z,7.00
2023-01-19T07:26:32.376Z,6.40
2023-01-19T07:27:32.357Z,10.00
2023-01-19T07:28:32.353Z,6.80
2023-01-19T07:29:32.377Z,6.40
2023-01-19T07:30:32.358Z,7.30
2023-01-19T07:31:32.384Z,6.80
2023-01-19T07:32:32.306Z,6.60
2023-01-19T07:33:32.305Z,6.60
2023-01-19T07:34:32.282Z,8.20
2023-01-19T07:35:32.289Z,6.70
2023-01-19T07:36:32.262Z,8.50
2023-01-19T07:37:32.268Z,6.90
2023-01-19T07:38:32.238Z,8.60
2023-01-19T07:39:32.279Z,6.80
2023-01-19T07:40:32.252Z,7.40
2023-01-19T07:41:32.213Z,6.70
2023-01-19T07:42:32.195Z,6.60
2023-01-19T07:43:32.191Z,6.50
2023-01-19T07:44:32.183Z,6.60
2023-01-19T07:45:32.195Z,7.40
2023-01-19T07:46:32.154Z,7.30
2023-01-19T07:47:32.152Z,5.90
2023-01-19T07:48:32.133Z,6.50
2023-01-19T07:49:32.145Z,8.80
2023-01-19T07:50:32.112Z,6.70
2023-01-19T07:51:32.127Z,7.80
2023-01-19T07:52:32.098Z,6.40
2023-01-19T07:53:32.084Z,7.20
2023-01-19T07:54:32.075Z,8.30
2023-01-19T07:55:32.061Z,6.70
2023-01-19T07:56:32.959Z,7.60
2023-01-19T07:57:32.041Z,6.70
2023-01-19T07:58:32.035Z,6.60
2023-01-19T07:59:32.030Z,7.10
2023-01-19T08:00:32.002Z,8.00
2023-01-19T08:01:32.082Z,6.60
2023-01-19T08:02:31.985Z,7.20
2023-01-19T08:03:31.970Z,6.90
2023-01-19T08:04:31.989Z,6.80
2023-01-19T08:05:31.966Z,7.40
2023-01-19T08:06:31.952Z,7.00
2023-01-19T08:07:31.931Z,6.40
2023-01-19T08:08:31.933Z,7.30
2023-01-19T08:09:31.913Z,6.90
2023-01-19T08:10:31.908Z,8.80
2023-01-19T08:11:31.931Z,6.70
2023-01-19T08:12:31.881Z,8.60
2023-01-19T08:13:31.874Z,7.20
2023-01-19T08:14:31.860Z,6.70
2023-01-19T08:15:31.919Z,6.70
2023-01-19T08:16:31.857Z,6.30
2023-01-19T08:17:31.828Z,6.60
2023-01-19T08:18:31.834Z,6.80
2023-01-19T08:19:31.816Z,7.60
2023-01-19T08:20:31.796Z,7.20
2023-01-19T08:21:31.797Z,7.20
2023-01-19T08:22:31.774Z,9.20
2023-01-19T08:23:31.775Z,7.00
2023-01-19T08:24:31.760Z,7.00
2023-01-19T08:25:31.746Z,7.60
2023-01-19T08:26:31.769Z,7.20
2023-01-19T08:27:31.716Z,7.00
2023-01-19T08:28:31.709Z,6.90
2023-01-19T08:29:31.699Z,7.00
2023-01-19T08:30:31.688Z,7.60
2023-01-19T08:31:31.809Z,7.80
2023-01-19T08:32:31.705Z,8.10
2023-01-19T08:33:31.654Z,7.10
2023-01-19T08:34:31.643Z,7.30
2023-01-19T08:35:31.633Z,7.00
2023-01-19T08:36:31.627Z,7.60
2023-01-19T08:37:34.052Z,6.50
2023-01-19T08:38:31.604Z,7.40
2023-01-19T08:39:31.588Z,7.10
2023-01-19T08:40:31.602Z,6.80
2023-01-19T08:41:31.575Z,7.70
2023-01-19T08:42:31.603Z,7.00
2023-01-19T08:43:31.642Z,6.10
2023-01-19T08:44:31.552Z,6.90
2023-01-19T08:45:31.539Z,7.40
2023-01-19T08:46:31.612Z,8.90
2023-01-19T08:47:31.536Z,8.80
2023-01-19T08:48:31.517Z,8.80
2023-01-19T08:49:31.485Z,9.80
2023-01-19T08:50:31.489Z,9.70
2023-01-19T08:51:31.467Z,9.70
2023-01-19T08:52:31.487Z,7.10
2023-01-19T08:53:31.446Z,7.30
2023-01-19T08:54:31.426Z,7.40
2023-01-19T08:55:31.420Z,8.30
2023-01-19T08:56:31.405Z,8.30
2023-01-19T08:57:31.390Z,7.20
2023-01-19T08:58:31.403Z,8.10
2023-01-19T08:59:31.422Z,7.70
2023-01-19T09:00:31.444Z,8.10
2023-01-19T09:01:31.522Z,6.70
2023-01-19T09:02:31.423Z,6.80
2023-01-19T09:03:31.361Z,7.00
2023-01-19T09:04:31.322Z,6.70
2023-01-19T09:05:31.339Z,6.80
2023-01-19T09:06:31.347Z,6.50
2023-01-19T09:07:33.850Z,7.00
2023-01-19T09:08:31.297Z,7.20
2023-01-19T09:09:31.287Z,6.50
2023-01-19T09:10:31.281Z,7.80
2023-01-19T09:11:31.258Z,7.20
2023-01-19T09:12:31.250Z,6.70
2023-01-19T09:13:31.235Z,7.00
2023-01-19T09:14:31.234Z,6.40
2023-01-19T09:15:31.203Z,6.90
2023-01-19T09:16:31.204Z,6.70
2023-01-19T09:17:31.217Z,6.80
2023-01-19T09:18:31.188Z,6.70
2023-01-19T09:19:31.178Z,6.60
2023-01-19T09:20:31.169Z,6.80
2023-01-19T09:21:31.148Z,6.40
2023-01-19T09:22:31.138Z,6.50
2023-01-19T09:23:31.120Z,6.00
2023-01-19T09:24:31.162Z,8.00
2023-01-19T09:25:31.118Z,6.20
2023-01-19T09:26:32.984Z,6.80
2023-01-19T09:27:31.083Z,7.10
2023-01-19T09:28:31.079Z,6.80
2023-01-19T09:29:31.063Z,7.10
2023-01-19T09:30:31.106Z,6.40
2023-01-19T09:31:31.130Z,6.80
2023-01-19T09:32:31.027Z,7.00
2023-01-19T09:33:31.021Z,7.10
2023-01-19T09:34:31.014Z,6.50
2023-01-19T09:35:31.001Z,7.30
2023-01-19T09:36:31.001Z,6.80
2023-01-19T09:37:30.980Z,6.00
2023-01-19T09:38:30.967Z,6.80
2023-01-19T09:39:30.976Z,6.60
2023-01-19T09:40:30.966Z,8.40
2023-01-19T09:41:30.944Z,6.70
2023-01-19T09:42:30.915Z,6.80
2023-01-19T09:43:30.908Z,6.10
2023-01-19T09:44:30.902Z,6.90
2023-01-19T09:45:30.923Z,5.60
2023-01-19T09:46:31.059Z,5.80
2023-01-19T09:47:30.868Z,5.90
2023-01-19T09:48:30.871Z,6.40
2023-01-19T09:49:30.849Z,6.10
2023-01-19T09:50:30.833Z,6.60
2023-01-19T09:51:30.838Z,7.50
2023-01-19T09:52:30.820Z,6.40
2023-01-19T09:53:30.803Z,6.50
2023-01-19T09:54:30.794Z,7.20
2023-01-19T09:55:30.783Z,6.70
2023-01-19T09:56:30.795Z,6.00
2023-01-19T09:57:30.763Z,6.80
2023-01-19T09:58:30.762Z,7.00
2023-01-19T09:59:30.746Z,7.40
2023-01-19T10:00:30.753Z,6.60
2023-01-19T10:01:31.210Z,6.30
2023-01-19T10:02:30.710Z,7.00
2023-01-19T10:03:30.702Z,7.30
2023-01-19T10:04:30.684Z,6.40
2023-01-19T10:05:30.691Z,7.50
2023-01-19T10:06:30.705Z,7.00
2023-01-19T10:07:30.670Z,6.10
2023-01-19T10:08:30.654Z,6.60
2023-01-19T10:09:30.634Z,7.00
2023-01-19T10:10:30.631Z,7.20
2023-01-19T10:11:41.885Z,6.60
2023-01-19T10:12:31.612Z,6.60
2023-01-19T10:13:30.590Z,6.40
2023-01-19T10:14:30.602Z,6.60
2023-01-19T10:15:30.580Z,6.80
2023-01-19T10:16:30.627Z,8.20
2023-01-19T10:17:30.631Z,6.50
2023-01-19T10:18:30.539Z,8.00
2023-01-19T10:19:30.524Z,6.70
2023-01-19T10:20:30.515Z,6.80
2023-01-19T10:21:30.503Z,6.10
2023-01-19T10:22:30.545Z,6.50
2023-01-19T10:23:30.501Z,6.00
2023-01-19T10:24:30.503Z,6.60
2023-01-19T10:25:30.500Z,6.50
2023-01-19T10:26:30.493Z,5.90
2023-01-19T10:27:30.454Z,6.30
2023-01-19T10:28:30.470Z,6.00
2023-01-19T10:29:30.455Z,6.00
2023-01-19T10:30:30.413Z,6.90
2023-01-19T10:31:30.605Z,5.50
2023-01-19T10:32:30.439Z,6.20
2023-01-19T10:33:30.389Z,6.50
2023-01-19T10:34:30.365Z,5.60
2023-01-19T10:35:30.355Z,5.80
2023-01-19T10:36:30.346Z,5.90
2023-01-19T10:37:30.356Z,6.50
2023-01-19T10:38:30.359Z,6.10
2023-01-19T10:39:30.315Z,6.00
2023-01-19T10:40:30.302Z,6.00
2023-01-19T10:41:30.290Z,5.60
2023-01-19T10:42:30.308Z,5.80
2023-01-19T10:43:30.272Z,5.40
2023-01-19T10:44:30.262Z,5.50
2023-01-19T10:45:30.407Z,5.40
2023-01-19T10:46:30.240Z,5.60
2023-01-19T10:47:30.276Z,6.10
2023-01-19T10:48:30.291Z,5.80
2023-01-19T10:49:30.235Z,5.80
2023-01-19T10:50:30.198Z,5.50
2023-01-19T10:51:30.246Z,5.70
2023-01-19T10:52:30.205Z,5.70
2023-01-19T10:54:48.114Z,5.50
2023-01-19T10:55:48.110Z,5.00
2023-01-19T10:56:48.140Z,5.10
2023-01-19T10:57:48.038Z,5.50
2023-01-19T10:58:48.040Z,5.80
2023-01-19T10:59:48.068Z,5.90
2023-01-19T11:00:48.033Z,6.40
2023-01-19T11:01:48.187Z,6.20
2023-01-19T11:02:48.038Z,6.00
2023-01-19T11:03:48.091Z,5.40
2023-01-19T11:04:49.928Z,5.40
2023-01-19T11:05:47.960Z,5.80
2023-01-19T11:06:47.965Z,5.70
2023-01-19T11:07:47.946Z,7.30
2023-01-19T11:08:47.931Z,7.10
2023-01-19T11:09:47.931Z,6.10
2023-01-19T11:10:49.275Z,6.00
2023-01-19T11:11:47.900Z,7.10
2023-01-19T11:12:47.898Z,6.80
2023-01-19T11:13:47.924Z,5.60
2023-01-19T11:14:47.865Z,5.90
2023-01-19T11:15:47.860Z,5.60
2023-01-19T11:16:47.868Z,5.60
2023-01-19T11:17:47.827Z,5.90
2023-01-19T11:18:47.814Z,5.70
2023-01-19T11:19:47.813Z,5.90
2023-01-19T11:20:47.792Z,6.60
2023-01-19T11:21:47.928Z,5.90
2023-01-19T11:22:48.906Z,5.50
2023-01-19T11:23:47.773Z,6.00
2023-01-19T11:24:47.759Z,5.60
2023-01-19T11:25:47.744Z,5.60
2023-01-19T11:26:47.749Z,5.80
2023-01-19T11:27:47.737Z,5.40
2023-01-19T11:28:47.714Z,5.40
2023-01-19T11:29:47.704Z,5.20
2023-01-19T11:30:47.750Z,5.70
2023-01-19T11:31:47.710Z,5.70
2023-01-19T11:32:47.688Z,5.20
2023-01-19T11:33:49.748Z,5.20
2023-01-19T11:34:47.646Z,5.70
2023-01-19T11:35:47.646Z,6.30
2023-01-19T11:36:47.637Z,5.90
2023-01-19T11:37:47.645Z,5.80
2023-01-19T11:38:47.607Z,6.20
2023-01-19T11:39:47.621Z,6.30
2023-01-19T11:40:47.595Z,6.00
2023-01-19T11:41:47.565Z,7.20
2023-01-19T11:42:47.574Z,6.00
2023-01-19T11:43:49.405Z,6.60
2023-01-19T11:44:47.533Z,5.90
2023-01-19T11:45:47.608Z,6.70
2023-01-19T11:46:49.996Z,5.90
2023-01-19T11:47:47.527Z,6.70
2023-01-19T11:48:47.501Z,10.00
2023-01-19T11:49:47.483Z,7.30
2023-01-19T11:50:47.488Z,6.80
2023-01-19T11:51:47.460Z,5.80
2023-01-19T11:52:47.472Z,5.60
2023-01-19T11:53:47.443Z,5.80
2023-01-19T11:54:47.438Z,6.20
2023-01-19T11:55:47.422Z,5.80
2023-01-19T11:56:47.406Z,6.30
2023-01-19T11:57:47.396Z,5.30
2023-01-19T11:58:47.389Z,5.70
2023-01-19T11:59:47.404Z,5.90
2023-01-19T12:00:47.410Z,6.00
2023-01-19T12:01:47.360Z,6.40
2023-01-19T12:02:47.364Z,6.40
2023-01-19T12:03:47.379Z,6.10
2023-01-19T12:04:47.355Z,5.90
2023-01-19T12:05:48.358Z,6.60
2023-01-19T12:06:47.319Z,6.80
2023-01-19T12:07:47.295Z,6.30
2023-01-19T12:08:47.290Z,6.30
2023-01-19T12:09:47.309Z,6.20
2023-01-19T12:10:47.270Z,6.40
2023-01-19T12:11:47.239Z,6.50
2023-01-19T12:12:47.267Z,6.70
2023-01-19T12:13:47.216Z,6.40
2023-01-19T12:14:47.248Z,5.80
2023-01-19T12:15:47.225Z,6.20
2023-01-19T12:16:47.223Z,6.50
2023-01-19T12:17:47.240Z,6.70
2023-01-19T12:18:47.195Z,6.30
2023-01-19T12:19:47.149Z,6.10
2023-01-19T12:20:47.166Z,6.40
2023-01-19T12:21:47.133Z,7.20
2023-01-19T12:22:47.133Z,6.10
2023-01-19T12:23:47.115Z,5.90
2023-01-19T12:24:47.103Z,6.50
2023-01-19T12:25:47.109Z,6.50
2023-01-19T12:26:47.104Z,5.70
2023-01-19T12:27:47.070Z,6.40
2023-01-19T12:28:47.061Z,6.50
2023-01-19T12:29:47.052Z,6.30
2023-01-19T12:30:47.175Z,7.10
2023-01-19T12:31:47.138Z,6.40
2023-01-19T12:32:47.016Z,6.70
2023-01-19T12:33:47.012Z,6.30
2023-01-19T12:34:47.007Z,6.10
2023-01-19T12:35:46.992Z,5.30
2023-01-19T12:36:46.992Z,7.00
2023-01-19T12:37:46.974Z,6.70
2023-01-19T12:38:46.965Z,6.10
2023-01-19T12:39:46.936Z,6.10
2023-01-19T12:40:46.945Z,6.30
2023-01-19T12:41:46.936Z,5.80
2023-01-19T12:42:46.914Z,6.40
2023-01-19T12:43:46.907Z,6.20
2023-01-19T12:44:46.885Z,6.30
2023-01-19T12:45:46.984Z,5.30
2023-01-19T12:46:46.890Z,6.10
2023-01-19T12:47:50.007Z,6.00
2023-01-19T12:48:46.856Z,6.30
2023-01-19T12:49:46.842Z,5.80
2023-01-19T12:50:46.824Z,6.40
2023-01-19T12:51:46.843Z,6.30
2023-01-19T12:52:46.824Z,7.20
2023-01-19T12:53:46.793Z,6.00
2023-01-19T12:54:46.783Z,5.50
2023-01-19T12:55:46.919Z,5.90
2023-01-19T12:56:46.804Z,5.60
2023-01-19T12:57:46.771Z,5.90
2023-01-19T12:58:46.756Z,6.70
2023-01-19T12:59:46.782Z,6.20
2023-01-19T13:00:46.758Z,6.10
2023-01-19T13:01:46.834Z,5.90
2023-01-19T13:02:46.879Z,6.10
2023-01-19T13:03:46.717Z,6.40
2023-01-19T13:04:46.671Z,6.20
2023-01-19T13:05:46.683Z,6.00
2023-01-19T13:06:46.661Z,5.70
2023-01-19T13:07:46.675Z,5.60
2023-01-19T13:08:46.639Z,5.50
2023-01-19T13:09:46.644Z,5.10
2023-01-19T13:10:46.616Z,7.00
2023-01-19T13:11:53.734Z,6.60
2023-01-19T13:12:47.602Z,5.20
2023-01-19T13:13:46.614Z,6.00
2023-01-19T13:14:46.587Z,4.60
2023-01-19T13:15:46.575Z,4.40
2023-01-19T13:16:46.545Z,4.70
2023-01-19T13:17:48.521Z,5.30
2023-01-19T13:18:46.523Z,6.20